Latest Weather Observations for Blackall

IDQ60801

Issued at 9:35 pm EST Friday 24 October 2014 (issued every 30 minutes, with the page automatically refreshed every 10 minutes)

About weather observations | Map of weather stations | Latest weather observations for QLD | Other Formats
Station Details ID: 036034 Name: BLACKALL AIRPORT Lat: -24.43 Lon: 145.43 Height: 281.3 m
Data from the previous 72 hours. | See also: Recent months at Blackall
Date/Time
EST
Temp
°C
App
Temp
°C
Dew
Point
Rel
Hum
%
Delta-T
°C
Wind Press
QNH
hPa
Press
MSL
hPa
Rain
since 9 am
mm
Dir
 
Spd
km/h
Gust
km/h
Spd
kts
Gust
kts
24/09:30pm 25.8 23.1 3.7 24 11.1 NE 7 9 4 5 1018.6 1017.1 0.0
24/09:00pm 26.5 24.4 3.7 23 11.5 ENE 4 7 2 4 1018.2 1016.7 0.0
24/08:30pm 28.1 25.4 3.7 21 12.4 NE 7 9 4 5 1018.1 1016.6 0.0
24/08:00pm 29.8 26.0 3.7 19 13.4 NE 13 15 7 8 1017.6 1016.2 0.0
24/07:30pm 29.4 26.0 1.8 17 13.7 ESE 9 11 5 6 1017.4 1016.0 0.0
24/07:00pm 31.3 28.2 1.6 15 14.9 ESE 7 11 4 6 1016.9 1015.5 0.0
24/06:30pm 32.2 28.7 1.3 14 15.5 SE 9 13 5 7 1016.7 1015.3 0.0
24/06:00pm 33.9 30.1 1.6 13 16.4 SE 11 20 6 11 1016.5 1015.1 0.0
24/05:30pm 34.9 31.0 1.3 12 17.1 ESE 11 22 6 12 1016.3 1014.9 0.0
24/05:00pm 34.9 31.0 1.3 12 17.1 E 11 19 6 10 1016.0 1014.6 0.0
24/04:30pm 34.6 30.3 1.1 12 17.0 SE 13 22 7 12 1015.9 1014.4 0.0
24/04:00pm 34.7 29.7 1.1 12 17.1 SE 17 24 9 13 1016.0 1014.6 0.0
24/03:30pm 34.5 30.2 1.0 12 17.0 ESE 13 19 7 10 1016.2 1014.8 0.0
24/03:00pm 34.6 29.9 1.1 12 17.0 E 15 22 8 12 1016.5 1015.1 0.0
24/02:30pm 35.8 33.0 3.1 13 17.3 W 7 15 4 8 1016.9 1015.5 0.0
24/02:00pm 34.7 31.2 3.3 14 16.5 SSE 11 22 6 12 1017.5 1016.1 0.0
24/01:30pm 34.0 30.2 3.7 15 16.0 NNE 13 20 7 11 1018.2 1016.7 0.0
24/01:00pm 33.8 31.1 3.6 15 15.9 W 7 13 4 7 1018.6 1017.1 0.0
24/12:30pm 33.1 30.4 3.9 16 15.4 SE 7 13 4 7 1019.0 1017.5 0.0
24/12:00pm 32.4 27.7 3.4 16 15.1 NNE 17 20 9 11 1019.5 1018.1 0.0
24/11:30am 31.4 27.9 3.4 17 14.5 NE 11 19 6 10 1020.1 1018.7 0.0
24/11:00am 31.8 28.5 4.6 18 14.3 N 11 30 6 16 1020.4 1019.0 0.0
24/10:30am 29.7 25.5 3.6 19 13.4 N 15 22 8 12 1020.9 1019.5 0.0
24/10:00am 28.9 24.7 3.7 20 12.9 NNW 15 24 8 13 1021.1 1019.7 0.0
24/09:30am 28.7 24.7 4.9 22 12.4 N 15 24 8 13 1021.2 1019.8 0.0
24/09:00am 27.8 23.1 6.0 25 11.5 N 20 28 11 15 1021.5 1020.1 0.0
24/08:30am 26.3 21.1 5.3 26 10.9 N 22 30 12 16 1021.3 1019.9 0.0
24/08:00am 25.2 19.7 5.9 29 10.0 N 24 33 13 18 1021.1 1019.7 0.0
24/07:30am 23.8 19.5 5.2 30 9.4 N 17 22 9 12 1021.1 1019.7 0.0
24/07:00am 22.2 18.5 4.7 32 8.7 NNE 13 22 7 12 1020.9 1019.5 0.0
24/06:30am 20.2 17.3 4.7 36 7.6 NE 9 13 5 7 1020.7 1019.3 0.0
24/06:00am 18.6 15.4 5.1 41 6.6 NE 11 13 6 7 1020.3 1018.9 0.0
24/05:30am 17.6 14.7 4.5 42 6.3 NE 9 13 5 7 1019.9 1018.5 0.0
24/05:00am 18.1 15.3 5.0 42 6.4 NNE 9 13 5 7 1019.5 1018.1 0.0
24/04:30am 17.9 15.0 4.8 42 6.4 NE 9 13 5 7 1019.0 1017.5 0.0
24/04:00am 18.8 16.2 6.0 43 6.4 NE 9 11 5 6 1018.6 1017.1 0.0
24/03:30am 18.4 16.1 5.9 44 6.2 ENE 7 9 4 5 1018.5 1017.0 0.0
24/03:00am 18.1 16.9 4.7 41 6.5 CALM 0 7 0 4 1018.3 1016.8 0.0
24/02:30am 19.0 16.8 5.1 40 6.8 NE 6 7 3 4 1018.3 1016.8 0.0
24/02:00am 20.2 17.5 5.4 38 7.4 NE 9 9 5 5 1018.3 1016.8 0.0
24/01:30am 20.7 18.2 4.7 35 7.9 NNE 7 9 4 5 1018.5 1017.0 0.0
24/01:00am 21.5 18.7 5.0 34 8.2 NNE 9 11 5 6 1018.5 1017.0 0.0
24/12:30am 22.3 19.5 5.3 33 8.6 NNE 9 11 5 6 1018.8 1017.3 0.0
24/12:00am 22.3 19.4 4.8 32 8.7 NE 9 11 5 6 1018.8 1017.3 0.0
 
Date/Time
EST
Temp
°C
App
Temp
°C
Dew
Point
Rel
Hum
%
Delta-T
°C
Wind Press
QNH
hPa
Press
MSL
hPa
Rain
since 9 am
mm
Dir
 
Spd
km/h
Gust
km/h
Spd
kts
Gust
kts
23/11:30pm 23.3 20.5 5.2 31 9.2 NE 9 11 5 6 1019.0 1017.5 0.0
23/11:00pm 24.2 21.4 5.1 29 9.7 NE 9 13 5 7 1019.1 1017.7 0.0
23/10:30pm 24.3 20.9 4.1 27 10.1 NE 11 15 6 8 1019.1 1017.7 0.0
23/10:00pm 25.9 22.7 4.9 26 10.8 NE 11 13 6 7 1019.0 1017.5 0.0
23/09:30pm 25.7 22.3 4.2 25 10.9 NE 11 13 6 7 1018.9 1017.4 0.0
23/09:00pm 26.7 23.4 4.5 24 11.3 NE 11 15 6 8 1018.5 1017.0 0.0
23/08:30pm 26.6 23.9 5.5 26 11.0 ENE 9 17 5 9 1018.0 1016.5 0.0
23/08:00pm 26.5 23.8 5.5 26 10.9 ESE 9 11 5 6 1017.4 1016.0 0.0
23/07:30pm 26.9 24.9 4.6 24 11.5 ESE 4 7 2 4 1017.0 1015.6 0.0
23/07:00pm 29.0 27.4 4.5 21 12.7 E 2 6 1 3 1016.7 1015.3 0.0
23/06:30pm 31.0 27.7 4.7 19 13.9 E 11 13 6 7 1016.3 1014.9 0.0
23/06:00pm 32.1 27.7 4.8 18 14.5 ESE 17 20 9 11 1016.1 1014.7 0.0
23/05:30pm 33.0 27.9 3.9 16 15.3 SE 20 30 11 16 1015.9 1014.4 0.0
23/05:00pm 33.3 29.5 4.1 16 15.4 SE 13 20 7 11 1015.6 1014.1 0.0
23/04:30pm 33.5 28.4 3.3 15 15.8 SSE 19 32 10 17 1015.6 1014.1 0.0
23/04:00pm 33.9 29.8 4.6 16 15.7 SSE 15 24 8 13 1015.6 1014.1 0.0
23/03:30pm 33.5 29.2 5.1 17 15.3 S 17 24 9 13 1015.7 1014.2 0.0
23/03:00pm 33.1 28.1 4.8 17 15.1 SE 20 30 11 16 1016.0 1014.6 0.0
23/02:30pm 32.7 30.1 6.1 19 14.5 NE 9 13 5 7 1016.3 1014.9 0.0
23/02:00pm 33.4 28.8 6.6 19 14.7 E 20 24 11 13 1016.8 1015.4 0.0
23/01:30pm 31.8 28.2 6.8 21 13.7 NNE 15 26 8 14 1017.2 1015.8 0.0
23/01:00pm 31.4 28.4 7.8 23 13.1 NE 13 17 7 9 1018.0 1016.5 0.0
23/12:30pm 32.1 29.6 9.6 25 12.9 N 13 19 7 10 1018.5 1017.0 0.0
23/12:00pm 30.8 28.1 9.1 26 12.3 ENE 13 19 7 10 1019.1 1017.7 0.0
23/11:30am 30.1 27.7 10.1 29 11.5 NNE 13 30 7 16 1019.6 1018.2 0.0
23/11:00am 29.7 27.0 10.3 30 11.1 NNE 15 22 8 12 1020.1 1018.7 0.0
23/10:30am 29.3 27.0 11.8 34 10.3 N 15 24 8 13 1020.7 1019.3 0.0
23/10:00am 28.0 24.7 11.5 35 9.6 NNE 20 28 11 15 1020.9 1019.5 0.0
23/09:30am 27.1 24.0 12.3 39 8.7 N 20 33 11 18 1021.3 1019.9 0.0
23/09:00am 25.5 22.1 12.4 44 7.6 NNE 22 33 12 18 1021.9 1020.4 -
23/08:30am 24.7 20.6 12.6 47 7.1 NNE 26 35 14 19 1021.8 1020.3 -
23/08:00am 23.8 20.3 12.1 48 6.7 NNE 22 37 12 20 1021.7 1020.2 -
23/07:30am 22.6 18.2 11.7 50 6.2 NNE 26 41 14 22 1021.4 1020.0 -
23/07:00am 21.9 17.8 11.3 51 5.9 NE 24 37 13 20 1021.1 1019.7 -
23/06:30am 20.2 17.2 9.2 49 5.9 NE 15 19 8 10 1020.8 1019.4 -
23/06:00am 19.1 16.2 8.1 49 5.7 ENE 13 17 7 9 1020.5 1019.1 -
23/05:30am 17.4 14.6 6.9 50 5.3 E 11 15 6 8 1020.1 1018.7 -
23/05:00am 16.4 13.5 4.8 46 5.6 ESE 9 11 5 6 1020.0 1018.6 -
23/04:30am 17.0 14.7 5.0 45 5.8 SSE 6 9 3 5 1019.6 1018.2 -
23/04:00am 17.4 14.5 4.4 42 6.2 S 9 11 5 6 1019.2 1017.8 -
23/03:30am 18.6 16.4 5.1 41 6.6 S 6 9 3 5 1019.1 1017.7 -
23/03:00am 18.9 16.3 6.1 43 6.4 SW 9 13 5 7 1019.0 1017.5 0.0
23/02:30am 19.5 17.0 6.6 43 6.6 ENE 9 11 5 6 1018.7 1017.2 -
23/02:00am 19.3 16.8 4.6 38 7.2 E 7 9 4 5 1018.7 1017.2 -
23/01:30am 20.2 19.1 5.1 37 7.5 CALM 0 6 0 3 1018.9 1017.4 -
23/01:00am 20.4 17.5 4.8 36 7.7 SE 9 9 5 5 1019.4 1018.0 -
23/12:30am 21.2 18.5 5.5 36 7.9 SSE 9 11 5 6 1019.7 1018.3 -
23/12:00am 20.2 19.0 4.7 36 7.6 CALM 0 0 0 0 1019.8 1018.4 -
 
Date/Time
EST
Temp
°C
App
Temp
°C
Dew
Point
Rel
Hum
%
Delta-T
°C
Wind Press
QNH
hPa
Press
MSL
hPa
Rain
since 9 am
mm
Dir
 
Spd
km/h
Gust
km/h
Spd
kts
Gust
kts
22/11:30pm 21.3 20.1 4.8 34 8.2 CALM 0 0 0 0 1019.9 1018.5 -
22/11:00pm 22.0 19.7 5.0 33 8.5 NNE 6 7 3 4 1019.8 1018.4 -
22/10:30pm 23.6 21.3 5.5 31 9.3 NE 7 9 4 5 1019.9 1018.5 -
22/10:00pm 24.7 21.8 4.5 27 10.2 E 9 13 5 7 1019.8 1018.4 -
22/09:30pm 26.5 23.6 4.9 25 11.1 E 9 13 5 7 1019.9 1018.5 -
22/09:00pm 26.5 23.6 4.9 25 11.1 E 9 11 5 6 1019.7 1018.3 0.0
22/08:30pm 25.9 22.3 4.9 26 10.8 ESE 13 15 7 8 1019.5 1018.1 -
22/08:00pm 25.1 23.7 3.7 25 10.7 CALM 0 4 0 2 1019.1 1017.7 -
22/07:30pm 27.5 24.6 4.5 23 11.8 E 9 11 5 6 1018.6 1017.1 -
22/07:00pm 28.2 25.0 3.1 20 12.6 E 9 13 5 7 1018.3 1016.8 -
22/06:30pm 29.7 26.5 2.9 18 13.6 E 9 13 5 7 1017.7 1016.3 -
22/06:00pm 31.1 27.5 3.2 17 14.3 ESE 11 15 6 8 1017.4 1016.0 -
22/05:30pm 32.4 28.1 3.4 16 15.1 ENE 15 19 8 10 1017.3 1015.9 -
22/05:00pm 32.9 28.2 2.9 15 15.5 SSE 17 28 9 15 1017.3 1015.9 -
22/04:30pm 32.9 27.0 1.9 14 15.8 ESE 22 32 12 17 1017.3 1015.9 -
22/04:00pm 32.6 29.1 3.5 16 15.2 ESE 11 19 6 10 1017.5 1016.1 -
22/03:30pm 32.6 28.5 4.4 17 14.9 SSE 15 24 8 13 1017.6 1016.2 -
22/03:00pm 32.7 27.8 5.3 18 14.7 SSE 20 30 11 16 1018.1 1016.6 -
22/02:30pm 32.5 28.7 5.9 19 14.4 ESE 15 26 8 14 1018.6 1017.1 -
22/02:00pm 31.9 29.5 5.4 19 14.2 ESE 7 24 4 13 1019.3 1017.9 -
22/01:30pm 32.0 28.3 4.7 18 14.5 ESE 13 24 7 13 1019.9 1018.5 -
22/01:00pm 30.7 27.2 7.2 23 12.9 ENE 15 22 8 12 1020.5 1019.1 -
22/12:30pm 30.3 26.9 7.5 24 12.5 E 15 24 8 13 1020.9 1019.5 -
22/12:00pm 30.2 27.9 9.1 27 11.9 NE 11 28 6 15 1021.4 1020.0 -
22/11:30am 29.5 25.6 9.6 29 11.3 NNE 20 30 11 16 1022.1 1020.6 0.0
22/11:00am 28.0 25.6 10.2 33 10.1 N 13 19 7 10 1022.8 1021.4 0.0
22/10:30am 27.5 23.9 9.8 33 10.0 NNE 19 30 10 16 1023.1 1021.7 0.0
22/10:00am 26.1 22.3 9.9 36 9.0 NE 20 30 11 16 1023.6 1022.2 0.0
22/09:30am 25.6 21.5 10.2 38 8.7 NE 22 35 12 19 1023.8 1022.4 0.0
22/09:00am 24.2 19.7 10.1 41 7.8 NE 24 33 13 18 1023.9 1022.5 0.0
22/08:30am 23.1 18.6 10.2 44 7.2 NNE 24 33 13 18 1023.9 1022.5 0.0
22/08:00am 22.4 17.6 10.2 46 6.7 NE 26 33 14 18 1023.9 1022.5 0.0
22/07:30am 21.2 16.2 9.4 47 6.4 NNE 26 37 14 20 1023.6 1022.2 0.0
22/07:00am 20.3 16.2 8.6 47 6.2 NNE 20 33 11 18 1023.2 1021.8 0.0
22/06:30am 19.8 15.7 8.5 48 6.0 NNE 20 30 11 16 1022.9 1021.5 0.0
22/06:00am 19.1 15.1 8.4 50 5.6 NE 19 30 10 16 1022.6 1021.2 0.0
22/05:30am 19.1 15.6 8.7 51 5.5 NNE 17 24 9 13 1022.1 1020.6 0.0
22/05:00am 19.6 15.5 8.6 49 5.8 NE 20 32 11 17 1021.8 1020.3 0.0
22/04:30am 19.9 15.8 8.6 48 6.0 NE 20 30 11 16 1021.5 1020.1 0.0
22/04:00am 20.2 16.1 7.9 45 6.4 NE 19 30 10 16 1021.3 1019.9 0.0
22/03:30am 20.2 16.8 7.6 44 6.6 NE 15 20 8 11 1021.2 1019.8 0.0
22/03:00am 19.3 16.4 6.4 43 6.5 NE 11 15 6 8 1021.1 1019.7 0.0
22/02:30am 18.6 15.5 5.5 42 6.5 NE 11 13 6 7 1021.0 1019.6 0.0
22/02:00am 20.1 16.7 5.7 39 7.2 NE 13 17 7 9 1021.0 1019.6 0.0
22/01:30am 18.6 15.9 5.8 43 6.4 E 9 11 5 6 1021.1 1019.7 0.0
22/01:00am 17.8 15.4 5.1 43 6.2 SE 7 9 4 5 1021.2 1019.8 0.0
22/12:30am 18.1 15.2 4.7 41 6.5 ESE 9 11 5 6 1021.4 1020.0 0.0
22/12:00am 18.9 16.5 4.3 38 7.0 SE 6 7 3 4 1021.7 1020.2 0.0
 
Date/Time
EST
Temp
°C
App
Temp
°C
Dew
Point
Rel
Hum
%
Delta-T
°C
Wind Press
QNH
hPa
Press
MSL
hPa
Rain
since 9 am
mm
Dir
 
Spd
km/h
Gust
km/h
Spd
kts
Gust
kts
21/11:30pm 21.0 18.7 4.6 34 8.1 ENE 6 7 3 4 1021.9 1020.4 0.0
21/11:00pm 22.2 19.8 5.2 33 8.5 ENE 7 9 4 5 1022.0 1020.5 0.0
21/10:30pm 22.7 19.6 5.6 33 8.7 ENE 11 13 6 7 1022.3 1020.9 0.0
21/10:00pm 23.7 20.2 5.6 31 9.2 ENE 13 17 7 9 1022.3 1020.9 0.0

Other Formats:

Comma delimited format used in spreadsheet applications
http://www.bom.gov.au/fwo/IDQ60801/IDQ60801.95351.axf

JavaScript Object Notation format (JSON) in row-major order
http://www.bom.gov.au/fwo/IDQ60801/IDQ60801.95351.json